sensor_id;sensor_type;location;lat;lon;timestamp;pressure;altitude;pressure_sealevel;temperature;humidity
46045;BME280;31781;54.094;13.428;2024-01-30T00:05:17;102900.03;;;4.85;63.77
46045;BME280;31781;54.094;13.428;2024-01-30T00:11:21;102903.84;;;4.82;63.83
46045;BME280;31781;54.094;13.428;2024-01-30T00:17:24;102903.31;;;4.77;63.08
46045;BME280;31781;54.094;13.428;2024-01-30T00:23:26;102902.84;;;4.72;63.17
46045;BME280;31781;54.094;13.428;2024-01-30T00:29:30;102901.34;;;4.68;64.15
46045;BME280;31781;54.094;13.428;2024-01-30T00:35:33;102892.63;;;4.65;63.99
46045;BME280;31781;54.094;13.428;2024-01-30T00:41:35;102886.00;;;4.58;63.88
46045;BME280;31781;54.094;13.428;2024-01-30T00:47:38;102891.59;;;4.55;64.62
46045;BME280;31781;54.094;13.428;2024-01-30T00:53:40;102896.38;;;4.51;64.39
46045;BME280;31781;54.094;13.428;2024-01-30T00:59:42;102889.41;;;4.49;64.92
46045;BME280;31781;54.094;13.428;2024-01-30T01:05:50;102889.53;;;4.47;64.66
46045;BME280;31781;54.094;13.428;2024-01-30T01:11:52;102888.88;;;4.43;64.40
46045;BME280;31781;54.094;13.428;2024-01-30T01:17:54;102893.78;;;4.38;64.73
46045;BME280;31781;54.094;13.428;2024-01-30T01:23:59;102899.28;;;4.37;64.66
46045;BME280;31781;54.094;13.428;2024-01-30T01:30:01;102894.34;;;4.31;64.64
46045;BME280;31781;54.094;13.428;2024-01-30T01:36:04;102896.53;;;4.26;64.92
46045;BME280;31781;54.094;13.428;2024-01-30T01:42:07;102887.94;;;4.21;65.36
46045;BME280;31781;54.094;13.428;2024-01-30T01:48:09;102891.72;;;4.18;64.91
46045;BME280;31781;54.094;13.428;2024-01-30T01:54:12;102903.59;;;4.16;65.36
46045;BME280;31781;54.094;13.428;2024-01-30T02:00:17;102895.75;;;4.13;65.22
46045;BME280;31781;54.094;13.428;2024-01-30T02:06:23;102895.22;;;4.08;65.86
46045;BME280;31781;54.094;13.428;2024-01-30T02:12:24;102891.03;;;4.04;65.25
46045;BME280;31781;54.094;13.428;2024-01-30T02:18:28;102890.53;;;3.99;65.60
46045;BME280;31781;54.094;13.428;2024-01-30T02:24:31;102885.47;;;3.94;65.35
46045;BME280;31781;54.094;13.428;2024-01-30T02:30:33;102877.00;;;3.87;66.03
46045;BME280;31781;54.094;13.428;2024-01-30T02:36:35;102876.25;;;3.85;65.65
46045;BME280;31781;54.094;13.428;2024-01-30T02:42:39;102871.19;;;3.81;66.28
46045;BME280;31781;54.094;13.428;2024-01-30T02:48:40;102876.94;;;3.76;65.62
46045;BME280;31781;54.094;13.428;2024-01-30T02:54:43;102880.81;;;3.72;66.33
46045;BME280;31781;54.094;13.428;2024-01-30T03:00:49;102881.88;;;3.70;65.86
46045;BME280;31781;54.094;13.428;2024-01-30T03:06:51;102881.16;;;3.68;66.65
46045;BME280;31781;54.094;13.428;2024-01-30T03:12:53;102886.63;;;3.66;66.94
46045;BME280;31781;54.094;13.428;2024-01-30T03:18:56;102886.78;;;3.65;66.26
46045;BME280;31781;54.094;13.428;2024-01-30T03:24:58;102880.75;;;3.61;66.50
46045;BME280;31781;54.094;13.428;2024-01-30T03:31:00;102886.22;;;3.60;67.15
46045;BME280;31781;54.094;13.428;2024-01-30T03:37:04;102888.94;;;3.60;66.62
46045;BME280;31781;54.094;13.428;2024-01-30T03:43:06;102896.25;;;3.58;66.80
46045;BME280;31781;54.094;13.428;2024-01-30T03:49:09;102890.13;;;3.56;67.25
46045;BME280;31781;54.094;13.428;2024-01-30T03:55:13;102891.84;;;3.57;67.62
46045;BME280;31781;54.094;13.428;2024-01-30T04:01:15;102888.19;;;3.58;67.31
46045;BME280;31781;54.094;13.428;2024-01-30T04:07:22;102882.56;;;3.61;67.82
46045;BME280;31781;54.094;13.428;2024-01-30T04:13:31;102884.94;;;3.65;68.34
46045;BME280;31781;54.094;13.428;2024-01-30T04:19:38;102882.75;;;3.70;68.37
46045;BME280;31781;54.094;13.428;2024-01-30T04:25:52;102874.34;;;3.75;68.92
46045;BME280;31781;54.094;13.428;2024-01-30T04:32:04;102875.50;;;3.83;68.51
46045;BME280;31781;54.094;13.428;2024-01-30T04:38:20;102869.66;;;3.89;69.07
46045;BME280;31781;54.094;13.428;2024-01-30T04:44:23;102864.81;;;3.95;68.47
46045;BME280;31781;54.094;13.428;2024-01-30T04:57:27;102856.41;;;4.10;69.36
46045;BME280;31781;54.094;13.428;2024-01-30T05:03:33;102850.56;;;4.16;69.11
46045;BME280;31781;54.094;13.428;2024-01-30T05:09:35;102837.72;;;4.20;68.78
46045;BME280;31781;54.094;13.428;2024-01-30T05:15:38;102837.72;;;4.20;68.37
46045;BME280;31781;54.094;13.428;2024-01-30T05:21:40;102858.53;;;4.18;68.12
46045;BME280;31781;54.094;13.428;2024-01-30T05:27:43;102856.06;;;4.15;67.98
46045;BME280;31781;54.094;13.428;2024-01-30T05:33:47;102852.00;;;4.09;68.06
46045;BME280;31781;54.094;13.428;2024-01-30T05:39:50;102847.94;;;4.04;68.00
46045;BME280;31781;54.094;13.428;2024-01-30T05:45:52;102849.28;;;3.98;67.97
46045;BME280;31781;54.094;13.428;2024-01-30T05:51:55;102838.84;;;3.93;67.91
46045;BME280;31781;54.094;13.428;2024-01-30T05:57:58;102847.38;;;3.87;68.33
46045;BME280;31781;54.094;13.428;2024-01-30T06:04:01;102842.44;;;3.81;67.51
46045;BME280;31781;54.094;13.428;2024-01-30T06:10:06;102843.75;;;3.76;68.17
46045;BME280;31781;54.094;13.428;2024-01-30T06:16:11;102832.59;;;3.69;68.10
46045;BME280;31781;54.094;13.428;2024-01-30T06:22:14;102824.00;;;3.64;68.35
46045;BME280;31781;54.094;13.428;2024-01-30T06:28:18;102823.47;;;3.59;68.70
46045;BME280;31781;54.094;13.428;2024-01-30T06:34:20;102825.75;;;3.53;68.40
46045;BME280;31781;54.094;13.428;2024-01-30T06:40:22;102833.19;;;3.49;68.45
46045;BME280;31781;54.094;13.428;2024-01-30T06:46:26;102821.06;;;3.43;68.62
46045;BME280;31781;54.094;13.428;2024-01-30T06:52:28;102834.84;;;3.39;69.52
46045;BME280;31781;54.094;13.428;2024-01-30T06:58:31;102832.38;;;3.36;70.05
46045;BME280;31781;54.094;13.428;2024-01-30T07:04:34;102822.44;;;3.36;69.42
46045;BME280;31781;54.094;13.428;2024-01-30T07:10:37;102819.75;;;3.36;70.05
46045;BME280;31781;54.094;13.428;2024-01-30T07:16:39;102821.41;;;3.39;69.96
46045;BME280;31781;54.094;13.428;2024-01-30T07:22:43;102808.66;;;3.41;70.42
46045;BME280;31781;54.094;13.428;2024-01-30T07:28:45;102802.22;;;3.43;70.33
46045;BME280;31781;54.094;13.428;2024-01-30T07:34:47;102809.22;;;3.46;70.92
46045;BME280;31781;54.094;13.428;2024-01-30T07:41:08;102803.50;;;3.51;70.44
46045;BME280;31781;54.094;13.428;2024-01-30T07:47:10;102800.44;;;3.55;69.94
46045;BME280;31781;54.094;13.428;2024-01-30T07:53:12;102801.81;;;3.61;69.85
46045;BME280;31781;54.094;13.428;2024-01-30T07:59:16;102813.13;;;3.66;70.30
46045;BME280;31781;54.094;13.428;2024-01-30T08:05:18;102804.81;;;3.69;69.72
46045;BME280;31781;54.094;13.428;2024-01-30T08:11:20;102810.69;;;3.74;70.03
46045;BME280;31781;54.094;13.428;2024-01-30T08:17:23;102798.00;;;3.76;69.66
46045;BME280;31781;54.094;13.428;2024-01-30T08:23:25;102803.16;;;3.79;69.66
46045;BME280;31781;54.094;13.428;2024-01-30T08:29:27;102800.13;;;3.83;69.87
46045;BME280;31781;54.094;13.428;2024-01-30T08:35:32;102809.56;;;3.89;70.35
46045;BME280;31781;54.094;13.428;2024-01-30T08:41:34;102815.47;;;3.94;69.70
46045;BME280;31781;54.094;13.428;2024-01-30T08:47:36;102820.38;;;4.00;69.75
46045;BME280;31781;54.094;13.428;2024-01-30T08:53:40;102813.44;;;4.09;69.84
46045;BME280;31781;54.094;13.428;2024-01-30T08:59:41;102812.09;;;4.14;69.75
46045;BME280;31781;54.094;13.428;2024-01-30T09:05:43;102813.34;;;4.21;69.60
46045;BME280;31781;54.094;13.428;2024-01-30T09:11:46;102812.03;;;4.27;69.52
46045;BME280;31781;54.094;13.428;2024-01-30T09:17:48;102809.00;;;4.31;69.70
46045;BME280;31781;54.094;13.428;2024-01-30T09:23:53;102816.47;;;4.39;70.01
46045;BME280;31781;54.094;13.428;2024-01-30T09:29:57;102799.72;;;4.47;70.33
46045;BME280;31781;54.094;13.428;2024-01-30T09:35:59;102806.09;;;4.57;69.80
46045;BME280;31781;54.094;13.428;2024-01-30T09:42:05;102797.78;;;4.71;69.78
46045;BME280;31781;54.094;13.428;2024-01-30T09:48:11;102795.84;;;4.84;69.61
46045;BME280;31781;54.094;13.428;2024-01-30T09:54:14;102781.00;;;5.12;69.93
46045;BME280;31781;54.094;13.428;2024-01-30T10:00:16;102768.94;;;5.38;69.57
46045;BME280;31781;54.094;13.428;2024-01-30T10:06:20;102765.31;;;5.60;69.56
46045;BME280;31781;54.094;13.428;2024-01-30T10:12:26;102766.47;;;5.78;69.20
46045;BME280;31781;54.094;13.428;2024-01-30T10:18:28;102765.22;;;5.93;68.57
46045;BME280;31781;54.094;13.428;2024-01-30T10:24:33;102769.31;;;6.08;69.01
46045;BME280;31781;54.094;13.428;2024-01-30T10:30:35;102769.25;;;6.19;68.12
46045;BME280;31781;54.094;13.428;2024-01-30T10:36:40;102756.38;;;6.32;69.09
46045;BME280;31781;54.094;13.428;2024-01-30T10:42:44;102760.88;;;6.43;68.75
46045;BME280;31781;54.094;13.428;2024-01-30T10:48:50;102746.56;;;6.52;68.00
46045;BME280;31781;54.094;13.428;2024-01-30T10:54:57;102748.59;;;6.60;67.81
46045;BME280;31781;54.094;13.428;2024-01-30T11:01:01;102731.69;;;6.67;67.51
46045;BME280;31781;54.094;13.428;2024-01-30T11:07:14;102728.16;;;6.76;67.50
46045;BME280;31781;54.094;13.428;2024-01-30T11:13:19;102709.38;;;6.84;66.97
46045;BME280;31781;54.094;13.428;2024-01-30T11:19:25;102705.31;;;7.00;67.60
46045;BME280;31781;54.094;13.428;2024-01-30T11:25:31;102709.47;;;7.13;66.92
46045;BME280;31781;54.094;13.428;2024-01-30T11:31:33;102698.00;;;7.30;66.17
46045;BME280;31781;54.094;13.428;2024-01-30T11:37:37;102682.03;;;7.47;66.33
46045;BME280;31781;54.094;13.428;2024-01-30T11:43:40;102680.59;;;7.62;65.34
46045;BME280;31781;54.094;13.428;2024-01-30T11:49:42;102673.75;;;7.77;65.95
46045;BME280;31781;54.094;13.428;2024-01-30T11:55:50;102645.06;;;7.94;65.91
46045;BME280;31781;54.094;13.428;2024-01-30T12:01:52;102648.31;;;8.07;65.39
46045;BME280;31781;54.094;13.428;2024-01-30T12:07:54;102633.16;;;8.23;65.28
46045;BME280;31781;54.094;13.428;2024-01-30T12:13:59;102614.72;;;8.37;65.44
46045;BME280;31781;54.094;13.428;2024-01-30T12:20:05;102610.81;;;8.49;66.06
46045;BME280;31781;54.094;13.428;2024-01-30T12:26:07;102607.91;;;8.60;65.59
46045;BME280;31781;54.094;13.428;2024-01-30T12:32:16;102605.28;;;8.68;66.24
46045;BME280;31781;54.094;13.428;2024-01-30T12:38:18;102600.25;;;8.73;65.41
46045;BME280;31781;54.094;13.428;2024-01-30T12:44:20;102593.69;;;8.75;65.55
46045;BME280;31781;54.094;13.428;2024-01-30T12:50:24;102583.50;;;8.77;65.63
46045;BME280;31781;54.094;13.428;2024-01-30T12:56:26;102579.94;;;8.77;65.63
46045;BME280;31781;54.094;13.428;2024-01-30T13:02:28;102570.94;;;8.76;65.43
46045;BME280;31781;54.094;13.428;2024-01-30T13:08:31;102578.41;;;8.74;66.14
46045;BME280;31781;54.094;13.428;2024-01-30T13:14:33;102582.09;;;8.73;65.58
46045;BME280;31781;54.094;13.428;2024-01-30T13:20:35;102589.69;;;8.70;65.80
46045;BME280;31781;54.094;13.428;2024-01-30T13:26:38;102582.72;;;8.67;66.46
46045;BME280;31781;54.094;13.428;2024-01-30T13:32:41;102571.31;;;8.64;66.23
46045;BME280;31781;54.094;13.428;2024-01-30T13:38:43;102559.59;;;8.63;65.86
46045;BME280;31781;54.094;13.428;2024-01-30T13:44:46;102554.31;;;8.62;66.83
46045;BME280;31781;54.094;13.428;2024-01-30T13:50:48;102559.91;;;8.60;65.99
46045;BME280;31781;54.094;13.428;2024-01-30T13:56:52;102570.06;;;8.58;66.77
46045;BME280;31781;54.094;13.428;2024-01-30T14:02:56;102555.94;;;8.55;66.71
46045;BME280;31781;54.094;13.428;2024-01-30T14:08:58;102559.97;;;8.51;66.53
46045;BME280;31781;54.094;13.428;2024-01-30T14:15:08;102552.97;;;8.48;66.53
46045;BME280;31781;54.094;13.428;2024-01-30T14:21:27;102550.41;;;8.47;67.29
46045;BME280;31781;54.094;13.428;2024-01-30T14:27:29;102543.44;;;8.44;67.07
46045;BME280;31781;54.094;13.428;2024-01-30T14:33:30;102545.47;;;8.42;67.72
46045;BME280;31781;54.094;13.428;2024-01-30T14:39:34;102542.03;;;8.40;67.06
46045;BME280;31781;54.094;13.428;2024-01-30T14:45:36;102547.75;;;8.37;67.49
46045;BME280;31781;54.094;13.428;2024-01-30T14:51:37;102543.63;;;8.33;68.04
46045;BME280;31781;54.094;13.428;2024-01-30T14:57:41;102540.25;;;8.31;67.62
46045;BME280;31781;54.094;13.428;2024-01-30T15:03:43;102547.94;;;8.26;67.80
46045;BME280;31781;54.094;13.428;2024-01-30T15:09:45;102546.38;;;8.23;67.60
46045;BME280;31781;54.094;13.428;2024-01-30T15:15:49;102533.25;;;8.19;68.34
46045;BME280;31781;54.094;13.428;2024-01-30T15:21:50;102530.13;;;8.14;68.36
46045;BME280;31781;54.094;13.428;2024-01-30T15:27:52;102518.91;;;8.09;68.04
46045;BME280;31781;54.094;13.428;2024-01-30T15:33:56;102518.50;;;8.04;68.98
46045;BME280;31781;54.094;13.428;2024-01-30T15:39:58;102523.34;;;8.00;68.87
46045;BME280;31781;54.094;13.428;2024-01-30T15:46:00;102536.50;;;7.95;68.96
46045;BME280;31781;54.094;13.428;2024-01-30T15:52:05;102551.34;;;7.91;68.67
46045;BME280;31781;54.094;13.428;2024-01-30T15:58:07;102543.81;;;7.85;69.15
46045;BME280;31781;54.094;13.428;2024-01-30T16:04:10;102543.94;;;7.83;69.29
46045;BME280;31781;54.094;13.428;2024-01-30T16:10:13;102542.69;;;7.78;69.03
46045;BME280;31781;54.094;13.428;2024-01-30T16:16:17;102551.13;;;7.75;69.16
46045;BME280;31781;54.094;13.428;2024-01-30T16:22:19;102539.84;;;7.70;69.27
46045;BME280;31781;54.094;13.428;2024-01-30T16:28:24;102536.47;;;7.68;69.48
46045;BME280;31781;54.094;13.428;2024-01-30T16:34:29;102544.03;;;7.64;70.07
46045;BME280;31781;54.094;13.428;2024-01-30T16:40:31;102542.31;;;7.63;69.30
46045;BME280;31781;54.094;13.428;2024-01-30T16:46:34;102543.47;;;7.61;69.61
46045;BME280;31781;54.094;13.428;2024-01-30T16:52:37;102550.00;;;7.58;69.47
46045;BME280;31781;54.094;13.428;2024-01-30T16:58:39;102543.91;;;7.56;69.66
46045;BME280;31781;54.094;13.428;2024-01-30T17:04:43;102536.94;;;7.54;69.74
46045;BME280;31781;54.094;13.428;2024-01-30T17:10:45;102540.91;;;7.50;69.64
46045;BME280;31781;54.094;13.428;2024-01-30T17:16:47;102543.88;;;7.47;69.70
46045;BME280;31781;54.094;13.428;2024-01-30T17:22:58;102536.94;;;7.44;69.95
46045;BME280;31781;54.094;13.428;2024-01-30T17:29:13;102530.81;;;7.32;71.53
46045;BME280;31781;54.094;13.428;2024-01-30T17:35:15;102538.44;;;7.66;69.46
46045;BME280;31781;54.094;13.428;2024-01-30T17:41:17;102542.44;;;7.62;69.42
46045;BME280;31781;54.094;13.428;2024-01-30T17:47:22;102546.91;;;7.53;69.79
46045;BME280;31781;54.094;13.428;2024-01-30T17:53:24;102559.31;;;7.46;70.83
46045;BME280;31781;54.094;13.428;2024-01-30T17:59:26;102565.84;;;7.44;70.73
46045;BME280;31781;54.094;13.428;2024-01-30T18:05:29;102562.44;;;7.42;71.94
46045;BME280;31781;54.094;13.428;2024-01-30T18:11:31;102555.88;;;7.44;71.38
46045;BME280;31781;54.094;13.428;2024-01-30T18:17:34;102569.13;;;7.47;71.52
46045;BME280;31781;54.094;13.428;2024-01-30T18:23:37;102574.84;;;7.54;72.19
46045;BME280;31781;54.094;13.428;2024-01-30T18:29:39;102569.81;;;7.59;72.23
46045;BME280;31781;54.094;13.428;2024-01-30T18:35:41;102566.69;;;7.63;72.93
46045;BME280;31781;54.094;13.428;2024-01-30T18:41:47;102554.41;;;7.69;72.99
46045;BME280;31781;54.094;13.428;2024-01-30T18:47:49;102563.81;;;7.74;73.35
46045;BME280;31781;54.094;13.428;2024-01-30T18:53:51;102574.06;;;7.80;72.94
46045;BME280;31781;54.094;13.428;2024-01-30T18:59:56;102558.22;;;7.86;72.92
46045;BME280;31781;54.094;13.428;2024-01-30T19:05:58;102564.06;;;7.91;72.49
46045;BME280;31781;54.094;13.428;2024-01-30T19:12:01;102566.31;;;7.95;73.74
46045;BME280;31781;54.094;13.428;2024-01-30T19:18:05;102575.84;;;7.99;73.19
46045;BME280;31781;54.094;13.428;2024-01-30T19:24:08;102583.56;;;8.04;72.93
46045;BME280;31781;54.094;13.428;2024-01-30T19:30:11;102567.72;;;8.09;73.32
46045;BME280;31781;54.094;13.428;2024-01-30T19:43:22;102558.53;;;8.19;73.72
46045;BME280;31781;54.094;13.428;2024-01-30T19:49:24;102557.22;;;8.23;73.12
46045;BME280;31781;54.094;13.428;2024-01-30T19:55:28;102562.19;;;8.28;73.48
46045;BME280;31781;54.094;13.428;2024-01-30T20:01:31;102564.66;;;8.31;73.72
46045;BME280;31781;54.094;13.428;2024-01-30T20:07:33;102563.47;;;8.34;73.33
46045;BME280;31781;54.094;13.428;2024-01-30T20:13:35;102566.19;;;8.34;73.46
46045;BME280;31781;54.094;13.428;2024-01-30T20:19:38;102560.06;;;8.31;73.56
46045;BME280;31781;54.094;13.428;2024-01-30T20:25:41;102567.50;;;8.29;74.16
46045;BME280;31781;54.094;13.428;2024-01-30T20:31:43;102572.06;;;8.29;73.70
46045;BME280;31781;54.094;13.428;2024-01-30T20:37:46;102569.63;;;8.26;73.95
46045;BME280;31781;54.094;13.428;2024-01-30T20:43:48;102557.06;;;8.25;74.26
46045;BME280;31781;54.094;13.428;2024-01-30T20:49:50;102567.91;;;8.25;74.40
46045;BME280;31781;54.094;13.428;2024-01-30T20:55:53;102551.50;;;8.26;74.48
46045;BME280;31781;54.094;13.428;2024-01-30T21:01:55;102562.19;;;8.28;73.90
46045;BME280;31781;54.094;13.428;2024-01-30T21:07:57;102558.63;;;8.27;74.18
46045;BME280;31781;54.094;13.428;2024-01-30T21:14:01;102557.78;;;8.27;73.82
46045;BME280;31781;54.094;13.428;2024-01-30T21:20:04;102555.78;;;8.29;73.89
46045;BME280;31781;54.094;13.428;2024-01-30T21:26:06;102566.63;;;8.29;74.45
46045;BME280;31781;54.094;13.428;2024-01-30T21:32:09;102563.78;;;8.30;74.75
46045;BME280;31781;54.094;13.428;2024-01-30T21:38:11;102563.63;;;8.32;74.58
46045;BME280;31781;54.094;13.428;2024-01-30T21:44:12;102552.50;;;8.35;74.93
46045;BME280;31781;54.094;13.428;2024-01-30T21:50:18;102542.19;;;8.39;75.16
46045;BME280;31781;54.094;13.428;2024-01-30T21:56:20;102541.03;;;8.41;75.49
46045;BME280;31781;54.094;13.428;2024-01-30T22:02:21;102540.59;;;8.46;75.78
46045;BME280;31781;54.094;13.428;2024-01-30T22:08:24;102543.84;;;8.49;75.60
46045;BME280;31781;54.094;13.428;2024-01-30T22:14:26;102545.25;;;8.53;75.20
46045;BME280;31781;54.094;13.428;2024-01-30T22:20:28;102542.22;;;8.56;74.87
46045;BME280;31781;54.094;13.428;2024-01-30T22:26:38;102541.94;;;8.59;74.60
46045;BME280;31781;54.094;13.428;2024-01-30T22:32:40;102539.06;;;8.61;75.05
46045;BME280;31781;54.094;13.428;2024-01-30T22:38:42;102543.31;;;8.63;75.06
46045;BME280;31781;54.094;13.428;2024-01-30T22:44:45;102544.31;;;8.62;74.89
46045;BME280;31781;54.094;13.428;2024-01-30T22:50:47;102547.59;;;8.66;74.86
46045;BME280;31781;54.094;13.428;2024-01-30T22:56:48;102550.16;;;8.67;74.76
46045;BME280;31781;54.094;13.428;2024-01-30T23:02:51;102552.00;;;8.67;75.38
46045;BME280;31781;54.094;13.428;2024-01-30T23:08:53;102559.16;;;8.68;75.25
46045;BME280;31781;54.094;13.428;2024-01-30T23:14:55;102546.41;;;8.68;75.42
46045;BME280;31781;54.094;13.428;2024-01-30T23:20:58;102545.41;;;8.69;75.32
46045;BME280;31781;54.094;13.428;2024-01-30T23:27:00;102545.28;;;8.71;75.67
46045;BME280;31781;54.094;13.428;2024-01-30T23:33:02;102552.25;;;8.73;75.74
46045;BME280;31781;54.094;13.428;2024-01-30T23:39:05;102547.38;;;8.77;76.21
46045;BME280;31781;54.094;13.428;2024-01-30T23:45:08;102557.91;;;8.80;76.13
46045;BME280;31781;54.094;13.428;2024-01-30T23:51:10;102565.47;;;8.86;76.48
46045;BME280;31781;54.094;13.428;2024-01-30T23:57:14;102565.16;;;8.89;76.61
